Reese, North Carolina
Current Conditions -  °F | °C
As of 2:55 AM on Friday 19 Dec 2014 (Local Time) from KTNB Reporting Station
Overcast Overcast  
Wind Chill: 25°   Ceiling: 2900
Heat Index: 34°   Visibility: 10mi
Dew Point: 21°   Wind: 13mph
Humidity: 60%   Direction: 310°NW
Pressure: 30.06"   Gusts: 16mph
Location:  36.2779°N, 81.7843°W
Report Text: KTNB 190755Z AUTO 31011G14KT 10SM OVC029 01/M06 A3006 RMK AO2 T00101060
Loading
Personal Weather Stations






























Interactive Weather Map New forecast layout! Learn more

10-Day Weather Forecast

Advertisements
Track Severe Weather on mobile